createdAt,value
2019-05-19T00:04:21.879Z,2.95
2019-05-19T00:09:24.255Z,2.83
2019-05-19T00:14:26.559Z,3.25
2019-05-19T00:19:28.864Z,3.45
2019-05-19T00:24:31.163Z,2.98
2019-05-19T00:29:33.463Z,2.83
2019-05-19T00:34:36.595Z,3.05
2019-05-19T00:39:38.901Z,3.55
2019-05-19T00:44:41.275Z,3.15
2019-05-19T00:49:43.608Z,3.45
2019-05-19T00:54:45.963Z,3.12
2019-05-19T00:59:48.740Z,2.90
2019-05-19T01:04:51.048Z,2.87
2019-05-19T01:09:53.444Z,3.47
2019-05-19T01:14:55.747Z,3.90
2019-05-19T01:19:58.060Z,2.87
2019-05-19T01:25:00.443Z,2.90
2019-05-19T01:30:04.597Z,2.45
2019-05-19T01:35:07.668Z,3.05
2019-05-19T01:40:10.068Z,3.17
2019-05-19T01:45:12.587Z,3.33
2019-05-19T01:50:17.979Z,3.10
2019-05-19T01:55:19.149Z,3.97
2019-05-19T02:00:21.519Z,3.37
2019-05-19T02:05:23.825Z,2.95
2019-05-19T02:10:26.169Z,2.65
2019-05-19T02:15:28.474Z,3.35
2019-05-19T02:20:33.581Z,2.17
2019-05-19T02:25:35.172Z,2.80
2019-05-19T02:30:37.629Z,3.50
2019-05-19T02:35:39.927Z,2.52
2019-05-19T02:40:43.763Z,3.10
2019-05-19T02:45:46.336Z,3.52
2019-05-19T02:50:52.710Z,3.40
2019-05-19T02:55:52.862Z,3.00
2019-05-19T03:00:55.173Z,2.75
2019-05-19T03:05:57.472Z,2.67
2019-05-19T03:10:59.771Z,3.60
2019-05-19T03:16:02.076Z,4.17
2019-05-19T03:21:11.140Z,2.47
2019-05-19T03:26:08.422Z,3.40
2019-05-19T03:31:12.365Z,2.92
2019-05-19T03:36:14.736Z,3.27
2019-05-19T03:41:17.036Z,3.33
2019-05-19T03:46:19.339Z,3.92
2019-05-19T03:51:30.920Z,3.40
2019-05-19T03:56:25.672Z,3.50
2019-05-19T04:01:27.971Z,3.35
2019-05-19T04:06:30.281Z,3.27
2019-05-19T04:11:32.588Z,3.47
2019-05-19T04:16:34.895Z,2.65
2019-05-19T04:21:48.279Z,3.83
2019-05-19T04:26:41.304Z,2.72
2019-05-19T04:31:43.684Z,3.67
2019-05-19T04:36:45.989Z,3.67
2019-05-19T04:41:48.363Z,3.50
2019-05-19T04:46:50.671Z,3.12
2019-05-19T04:52:05.855Z,3.50
2019-05-19T04:56:57.076Z,3.95
2019-05-19T05:01:59.452Z,3.98
2019-05-19T05:07:01.756Z,3.85
2019-05-19T05:12:04.329Z,3.12
2019-05-19T05:17:06.636Z,3.55
2019-05-19T05:22:21.226Z,4.20
2019-05-19T05:27:12.963Z,4.37
2019-05-19T05:32:15.263Z,5.50
2019-05-19T05:37:17.564Z,3.47
2019-05-19T05:42:19.877Z,3.85
2019-05-19T05:47:22.244Z,4.95
2019-05-19T05:52:37.652Z,3.45
2019-05-19T05:57:28.571Z,3.67
2019-05-19T06:02:30.876Z,4.00
2019-05-19T06:07:33.191Z,4.90
2019-05-19T06:12:35.565Z,4.03
2019-05-19T06:17:37.949Z,4.83
2019-05-19T06:22:55.217Z,5.00
2019-05-19T06:27:44.291Z,4.17
2019-05-19T06:32:48.240Z,4.22
2019-05-19T06:37:50.539Z,4.58
2019-05-19T06:42:52.856Z,4.28
2019-05-19T06:47:55.228Z,4.53
2019-05-19T06:53:12.910Z,4.47
2019-05-19T06:58:01.631Z,4.40
2019-05-19T07:03:03.931Z,5.10
2019-05-19T07:08:06.231Z,6.22
2019-05-19T07:13:08.543Z,10.38
2019-05-19T07:18:10.855Z,12.65
2019-05-19T07:23:25.982Z,13.10
2019-05-19T07:28:17.210Z,13.53
2019-05-19T07:33:19.586Z,15.55
2019-05-19T07:38:21.975Z,15.10
2019-05-19T07:43:24.384Z,12.95
2019-05-19T07:48:26.770Z,17.02
2019-05-19T07:53:42.190Z,14.50
2019-05-19T07:58:33.187Z,12.93
2019-05-19T08:03:35.500Z,15.03
2019-05-19T08:08:37.812Z,13.35
2019-05-19T08:13:40.124Z,12.93
2019-05-19T08:18:42.433Z,13.62
2019-05-19T08:23:59.328Z,11.15
2019-05-19T08:28:48.796Z,12.73
2019-05-19T08:33:51.213Z,15.13
2019-05-19T08:38:53.589Z,12.20
2019-05-19T08:43:55.981Z,12.75
2019-05-19T08:48:58.668Z,13.25
2019-05-19T08:54:13.893Z,10.98
2019-05-19T08:59:05.175Z,11.53
2019-05-19T09:04:07.493Z,10.25
2019-05-19T09:09:09.876Z,10.32
2019-05-19T09:14:12.190Z,10.70
2019-05-19T09:19:14.563Z,8.80
2019-05-19T09:24:29.537Z,10.63
2019-05-19T09:29:20.899Z,11.35
2019-05-19T09:34:23.206Z,9.53
2019-05-19T09:39:25.550Z,10.50
2019-05-19T09:44:27.892Z,9.98
2019-05-19T09:49:34.084Z,9.30
2019-05-19T09:54:44.604Z,13.43
2019-05-19T09:59:40.439Z,22.73
2019-05-19T10:04:42.891Z,29.77
2019-05-19T10:09:47.608Z,34.78
2019-05-19T10:14:49.925Z,24.20
2019-05-19T10:19:52.314Z,20.43
2019-05-19T10:25:10.140Z,23.50
2019-05-19T10:29:58.699Z,25.82
2019-05-19T10:35:01.069Z,26.17
2019-05-19T10:40:05.096Z,21.97
2019-05-19T10:45:07.975Z,25.17
2019-05-19T10:50:10.306Z,22.58
2019-05-19T10:55:12.753Z,21.37
2019-05-19T11:00:15.237Z,19.00
2019-05-19T11:05:18.789Z,22.67
2019-05-19T11:10:21.104Z,10.97
2019-05-19T11:15:23.478Z,13.78
2019-05-19T11:20:25.803Z,13.43
2019-05-19T11:25:34.165Z,15.75
2019-05-19T11:30:32.221Z,12.20
2019-05-19T11:35:34.527Z,11.95
2019-05-19T11:40:36.833Z,14.25
2019-05-19T11:45:39.213Z,13.68
2019-05-19T11:50:42.341Z,12.30
2019-05-19T11:55:44.797Z,14.03
2019-05-19T12:00:47.179Z,16.48
2019-05-19T12:05:49.502Z,12.37
2019-05-19T12:10:51.876Z,10.55
2019-05-19T12:15:54.194Z,13.50
2019-05-19T12:20:56.578Z,11.28
2019-05-19T12:25:59.056Z,11.08
2019-05-19T12:31:01.441Z,14.18
2019-05-19T12:36:04.807Z,12.53
2019-05-19T12:41:07.183Z,10.70
2019-05-19T12:46:16.016Z,9.75
2019-05-19T12:51:13.566Z,12.30
2019-05-19T12:56:15.869Z,11.30
2019-05-19T13:01:18.185Z,12.15
2019-05-19T13:06:20.562Z,11.20
2019-05-19T13:11:22.865Z,12.10
2019-05-19T13:16:25.171Z,12.58
2019-05-19T13:21:27.479Z,11.35
2019-05-19T13:26:29.787Z,10.70
2019-05-19T13:31:32.095Z,10.58
2019-05-19T13:36:34.431Z,9.13
2019-05-19T13:41:36.788Z,14.00
2019-05-19T13:46:39.100Z,11.48
2019-05-19T13:51:42.170Z,10.18
2019-05-19T13:56:44.596Z,8.75
2019-05-19T14:01:46.899Z,9.68
2019-05-19T14:06:49.280Z,9.78
2019-05-19T14:11:51.647Z,9.95
2019-05-19T14:16:53.955Z,8.93
2019-05-19T14:21:56.333Z,10.45
2019-05-19T14:26:58.635Z,9.85
2019-05-19T14:32:00.941Z,8.43
2019-05-19T14:37:03.326Z,8.98
2019-05-19T14:42:07.338Z,9.03
2019-05-19T14:47:09.649Z,8.33
2019-05-19T14:52:12.025Z,8.90
2019-05-19T14:57:14.406Z,8.43
2019-05-19T15:02:19.745Z,7.30
2019-05-19T15:07:20.736Z,6.92
2019-05-19T15:12:23.036Z,8.83
2019-05-19T15:17:25.339Z,7.40
2019-05-19T15:22:27.639Z,6.90
2019-05-19T15:27:29.943Z,6.75
2019-05-19T15:32:32.244Z,7.05
2019-05-19T15:37:34.550Z,6.90
2019-05-19T15:42:36.854Z,7.58
2019-05-19T15:47:39.151Z,7.53
2019-05-19T15:52:41.461Z,7.70
2019-05-19T15:57:43.843Z,6.55
2019-05-19T16:02:46.160Z,5.87
2019-05-19T16:07:48.539Z,4.95
2019-05-19T16:12:50.840Z,6.28
2019-05-19T16:17:53.146Z,5.62
2019-05-19T16:22:55.526Z,5.28
2019-05-19T16:27:57.895Z,5.97
2019-05-19T16:33:00.205Z,5.20
2019-05-19T16:38:02.525Z,5.08
2019-05-19T16:43:04.882Z,5.15
2019-05-19T16:48:07.243Z,6.10
2019-05-19T16:53:09.569Z,5.22
2019-05-19T16:58:21.261Z,5.30
2019-05-19T17:03:16.017Z,5.47
2019-05-19T17:08:18.331Z,5.00
2019-05-19T17:13:20.656Z,5.53
2019-05-19T17:18:22.999Z,4.10
2019-05-19T17:23:25.967Z,4.45
2019-05-19T17:28:28.284Z,5.72
2019-05-19T17:33:30.616Z,4.85
2019-05-19T17:38:33.005Z,4.20
2019-05-19T17:43:35.411Z,5.58
2019-05-19T17:48:37.732Z,5.03
2019-05-19T17:53:40.058Z,4.70
2019-05-19T17:58:42.928Z,4.65
2019-05-19T18:03:45.712Z,4.40
2019-05-19T18:08:48.122Z,5.72
2019-05-19T18:13:50.415Z,4.50
2019-05-19T18:18:52.722Z,3.75
2019-05-19T18:23:55.096Z,6.25
2019-05-19T18:28:57.424Z,5.30
2019-05-19T18:33:59.799Z,4.10
2019-05-19T18:39:02.106Z,4.58
2019-05-19T18:44:04.405Z,5.70
2019-05-19T18:49:06.707Z,4.20
2019-05-19T18:54:09.009Z,4.75
2019-05-19T18:59:11.319Z,10.53
2019-05-19T19:04:13.624Z,6.40
2019-05-19T19:09:15.929Z,5.00
2019-05-19T19:14:18.313Z,5.08
2019-05-19T19:19:20.676Z,6.10
2019-05-19T19:24:23.191Z,4.20
2019-05-19T19:29:25.576Z,4.78
2019-05-19T19:34:27.879Z,4.00
2019-05-19T19:39:30.184Z,6.05
2019-05-19T19:44:32.483Z,4.62
2019-05-19T19:49:34.788Z,4.55
2019-05-19T19:54:37.089Z,4.40
2019-05-19T19:59:39.392Z,5.37
2019-05-19T20:04:41.699Z,3.75
2019-05-19T20:09:44.009Z,4.42
2019-05-19T20:14:46.389Z,10.10
2019-05-19T20:19:48.691Z,4.25
2019-05-19T20:24:51.042Z,4.15
2019-05-19T20:29:53.375Z,5.12
2019-05-19T20:34:55.675Z,4.95
2019-05-19T20:39:57.980Z,6.58
2019-05-19T20:45:00.360Z,7.17
2019-05-19T20:50:03.067Z,4.37
2019-05-19T20:55:06.208Z,4.67
2019-05-19T21:00:08.660Z,4.90
2019-05-19T21:05:11.035Z,7.03
2019-05-19T21:10:13.408Z,3.77
2019-05-19T21:15:15.720Z,4.20
2019-05-19T21:20:18.019Z,4.50
2019-05-19T21:25:20.323Z,5.78
2019-05-19T21:30:22.624Z,5.90
2019-05-19T21:35:24.930Z,4.10
2019-05-19T21:40:27.232Z,4.75
2019-05-19T21:45:29.561Z,5.10
2019-05-19T21:50:31.919Z,5.35
2019-05-19T21:55:34.296Z,4.35
2019-05-19T22:00:36.603Z,4.37
2019-05-19T22:05:52.525Z,4.17
2019-05-19T22:10:43.002Z,4.55
2019-05-19T22:15:45.300Z,6.17
2019-05-19T22:20:47.678Z,4.35
2019-05-19T22:25:50.029Z,4.55
2019-05-19T22:30:52.423Z,4.85
2019-05-19T22:35:55.072Z,4.33
2019-05-19T22:40:57.372Z,4.42
2019-05-19T22:45:59.744Z,4.03
2019-05-19T22:51:02.044Z,4.20
2019-05-19T22:56:04.359Z,4.33
2019-05-19T23:01:06.817Z,4.87
2019-05-19T23:06:09.184Z,5.95
2019-05-19T23:11:11.487Z,5.92
2019-05-19T23:16:13.805Z,4.15
2019-05-19T23:21:16.164Z,5.12
2019-05-19T23:26:18.540Z,4.60
2019-05-19T23:31:20.840Z,4.53
2019-05-19T23:36:23.139Z,4.80
2019-05-19T23:41:25.465Z,4.62
2019-05-19T23:46:27.840Z,4.53
2019-05-19T23:51:30.144Z,3.98
2019-05-19T23:56:32.444Z,5.08
